createdAt,value
2017-10-13T00:01:00.563Z,24.80
2017-10-13T00:03:26.863Z,12.57
2017-10-13T00:05:53.139Z,11.93
2017-10-13T00:08:19.413Z,17.37
2017-10-13T00:10:45.940Z,15.27
2017-10-13T00:13:12.248Z,15.33
2017-10-13T00:15:38.559Z,19.73
2017-10-13T00:18:05.029Z,9.80
2017-10-13T00:20:31.317Z,11.63
2017-10-13T00:22:57.601Z,19.50
2017-10-13T00:25:23.888Z,10.33
2017-10-13T00:27:50.156Z,13.10
2017-10-13T00:30:16.489Z,14.70
2017-10-13T00:32:43.012Z,13.10
2017-10-13T00:35:10.032Z,10.97
2017-10-13T00:37:36.304Z,14.43
2017-10-13T00:40:02.624Z,15.63
2017-10-13T00:42:28.908Z,15.50
2017-10-13T00:44:55.220Z,10.80
2017-10-13T00:47:21.495Z,10.50
2017-10-13T00:49:48.508Z,18.67
2017-10-13T00:52:14.809Z,12.70
2017-10-13T00:54:41.104Z,15.17
2017-10-13T00:57:07.425Z,12.07
2017-10-13T00:59:33.723Z,12.90
2017-10-13T01:02:00.039Z,25.30
2017-10-13T01:04:26.527Z,17.23
2017-10-13T01:06:53.593Z,12.10
2017-10-13T01:09:19.905Z,10.37
2017-10-13T01:11:46.201Z,21.43
2017-10-13T01:14:12.496Z,11.37
2017-10-13T01:16:38.796Z,8.60
2017-10-13T01:19:05.108Z,11.90
2017-10-13T01:21:32.129Z,11.83
2017-10-13T01:23:58.408Z,11.63
2017-10-13T01:26:24.672Z,13.13
2017-10-13T01:28:50.960Z,11.00
2017-10-13T01:31:17.227Z,12.40
2017-10-13T01:33:43.540Z,14.40
2017-10-13T01:36:09.840Z,14.57
2017-10-13T01:38:36.120Z,12.07
2017-10-13T01:41:02.390Z,16.50
2017-10-13T01:43:29.565Z,14.40
2017-10-13T01:45:55.855Z,21.53
2017-10-13T01:48:22.146Z,16.43
2017-10-13T01:50:48.440Z,15.73
2017-10-13T01:53:15.479Z,9.87
2017-10-13T01:55:42.646Z,13.50
2017-10-13T01:58:09.110Z,18.83
2017-10-13T02:00:35.451Z,13.30
2017-10-13T02:03:01.793Z,10.80
2017-10-13T02:05:28.072Z,15.30
2017-10-13T02:07:54.361Z,10.10
2017-10-13T02:10:20.632Z,14.47
2017-10-13T02:12:46.996Z,13.50
2017-10-13T02:15:13.280Z,13.70
2017-10-13T02:17:39.582Z,11.00
2017-10-13T02:20:07.353Z,12.27
2017-10-13T02:22:34.403Z,11.67
2017-10-13T02:25:01.452Z,14.10
2017-10-13T02:27:28.475Z,17.00
2017-10-13T02:29:54.790Z,18.83
2017-10-13T02:32:21.071Z,20.00
2017-10-13T02:34:48.111Z,9.03
2017-10-13T02:37:15.136Z,14.40
2017-10-13T02:39:41.692Z,17.90
2017-10-13T02:42:08.708Z,13.80
2017-10-13T02:44:35.020Z,12.10
2017-10-13T02:47:01.303Z,16.67
2017-10-13T02:49:28.319Z,13.60
2017-10-13T02:51:54.647Z,14.43
2017-10-13T02:54:20.940Z,14.97
2017-10-13T02:56:47.372Z,16.90
2017-10-13T02:59:13.653Z,16.10
2017-10-13T03:01:39.937Z,19.97
2017-10-13T03:04:06.197Z,19.10
2017-10-13T03:06:32.500Z,27.23
2017-10-13T03:08:58.815Z,20.70
2017-10-13T03:11:25.113Z,14.10
2017-10-13T03:13:52.153Z,19.67
2017-10-13T03:16:19.256Z,14.80
2017-10-13T03:18:45.572Z,17.40
2017-10-13T03:21:11.847Z,17.87
2017-10-13T03:23:38.142Z,14.20
2017-10-13T03:26:04.469Z,20.17
2017-10-13T03:28:30.871Z,17.83
2017-10-13T03:30:57.890Z,26.30
2017-10-13T03:33:24.180Z,19.00
2017-10-13T03:35:50.643Z,33.07
2017-10-13T03:38:16.962Z,23.30
2017-10-13T03:40:43.300Z,21.47
2017-10-13T03:43:11.077Z,21.13
2017-10-13T03:45:37.372Z,22.70
2017-10-13T03:48:03.640Z,36.47
2017-10-13T03:50:29.947Z,19.93
2017-10-13T03:52:56.239Z,18.70
2017-10-13T03:55:22.532Z,24.10
2017-10-13T03:57:48.820Z,23.53
2017-10-13T04:00:15.100Z,27.30
2017-10-13T04:02:42.153Z,24.27
2017-10-13T04:05:09.231Z,22.40
2017-10-13T04:07:35.529Z,21.33
2017-10-13T04:10:02.556Z,20.67
2017-10-13T04:12:29.020Z,18.97
2017-10-13T04:14:56.051Z,24.23
2017-10-13T04:17:23.092Z,27.77
2017-10-13T04:19:49.402Z,26.53
2017-10-13T04:22:15.712Z,23.07
2017-10-13T04:24:42.739Z,30.03
2017-10-13T04:27:09.045Z,22.23
2017-10-13T04:29:36.074Z,24.70
2017-10-13T04:32:03.108Z,24.80
2017-10-13T04:34:29.404Z,41.77
2017-10-13T04:36:55.660Z,33.57
2017-10-13T04:39:21.967Z,37.30
2017-10-13T04:41:48.280Z,28.67
2017-10-13T04:44:14.759Z,34.67
2017-10-13T04:46:41.088Z,36.93
2017-10-13T04:49:07.392Z,35.90
2017-10-13T04:51:33.732Z,28.20
2017-10-13T04:54:00.040Z,39.17
2017-10-13T04:56:26.319Z,34.03
2017-10-13T04:58:52.620Z,33.23
2017-10-13T05:01:18.936Z,38.20
2017-10-13T05:03:45.255Z,35.60
2017-10-13T05:06:11.568Z,43.87
2017-10-13T05:08:38.599Z,31.50
2017-10-13T05:11:05.691Z,35.10
2017-10-13T05:13:31.992Z,42.43
2017-10-13T05:15:58.329Z,38.80
2017-10-13T05:18:24.695Z,22.63
2017-10-13T05:20:51.038Z,29.27
2017-10-13T05:23:17.375Z,25.80
2017-10-13T05:25:43.636Z,30.17
2017-10-13T05:28:10.701Z,29.57
2017-10-13T05:30:37.010Z,23.93
2017-10-13T05:33:04.079Z,26.43
2017-10-13T05:35:30.345Z,24.63
2017-10-13T05:37:56.657Z,30.87
2017-10-13T05:40:22.945Z,52.43
2017-10-13T05:42:50.006Z,50.10
2017-10-13T05:45:16.301Z,43.43
2017-10-13T05:47:42.633Z,29.50
2017-10-13T05:50:08.919Z,27.10
2017-10-13T05:52:35.192Z,28.37
2017-10-13T05:55:02.234Z,25.80
2017-10-13T05:57:28.563Z,29.87
2017-10-13T05:59:54.845Z,26.23
2017-10-13T06:02:21.133Z,21.83
2017-10-13T06:04:47.468Z,25.30
2017-10-13T06:07:14.537Z,27.40
2017-10-13T06:09:40.894Z,23.37
2017-10-13T06:12:07.184Z,21.87
2017-10-13T06:14:34.220Z,23.80
2017-10-13T06:17:01.285Z,33.60
2017-10-13T06:19:28.470Z,21.10
2017-10-13T06:21:54.769Z,30.50
2017-10-13T06:24:21.041Z,23.30
2017-10-13T06:26:47.344Z,22.87
2017-10-13T06:29:13.620Z,27.10
2017-10-13T06:31:39.913Z,27.37
2017-10-13T06:34:06.247Z,27.20
2017-10-13T06:36:32.544Z,28.93
2017-10-13T06:38:59.580Z,26.73
2017-10-13T06:41:26.621Z,29.00
2017-10-13T06:43:53.663Z,28.60
2017-10-13T06:46:19.992Z,28.03
2017-10-13T06:48:46.284Z,34.03
2017-10-13T06:51:12.600Z,36.80
2017-10-13T06:53:39.028Z,28.27
2017-10-13T06:56:05.336Z,25.60
2017-10-13T06:58:31.658Z,23.87
2017-10-13T07:00:58.685Z,26.47
2017-10-13T07:03:25.173Z,44.53
2017-10-13T07:05:51.451Z,25.90
2017-10-13T07:08:17.740Z,27.43
2017-10-13T07:10:44.045Z,27.93
2017-10-13T07:13:10.389Z,27.17
2017-10-13T07:15:36.716Z,19.60
2017-10-13T07:18:03.007Z,19.73
2017-10-13T07:20:29.403Z,22.00
2017-10-13T07:22:55.684Z,28.23
2017-10-13T07:25:22.002Z,23.23
2017-10-13T07:27:49.152Z,22.53
2017-10-13T07:30:16.195Z,20.87
2017-10-13T07:32:42.493Z,20.00
2017-10-13T07:35:08.887Z,14.70
2017-10-13T07:37:35.249Z,15.30
2017-10-13T07:40:01.570Z,21.23
2017-10-13T07:42:27.857Z,21.83
2017-10-13T07:44:54.883Z,20.07
2017-10-13T07:47:21.193Z,16.77
2017-10-13T07:49:47.481Z,17.53
2017-10-13T07:52:13.802Z,22.60
2017-10-13T07:54:40.840Z,23.40
2017-10-13T07:57:07.879Z,27.90
2017-10-13T07:59:34.987Z,23.87
2017-10-13T08:02:01.344Z,15.33
2017-10-13T08:04:27.632Z,17.67
2017-10-13T08:06:53.933Z,18.57
2017-10-13T08:09:20.985Z,19.37
2017-10-13T08:11:47.327Z,12.40
2017-10-13T08:14:13.641Z,23.30
2017-10-13T08:16:39.948Z,16.57
2017-10-13T08:19:06.280Z,19.30
2017-10-13T08:21:33.333Z,25.50
2017-10-13T08:24:00.368Z,16.80
2017-10-13T08:26:27.403Z,17.93
2017-10-13T08:28:53.752Z,15.23
2017-10-13T08:31:20.032Z,14.90
2017-10-13T08:33:46.339Z,22.10
2017-10-13T08:36:12.620Z,13.70
2017-10-13T08:38:38.907Z,17.73
2017-10-13T08:41:05.186Z,16.37
2017-10-13T08:43:31.500Z,20.37
2017-10-13T08:45:57.825Z,14.07
2017-10-13T08:48:24.166Z,13.13
2017-10-13T08:50:50.451Z,14.13
2017-10-13T08:53:16.782Z,14.63
2017-10-13T08:55:43.052Z,15.93
2017-10-13T08:58:09.356Z,20.67
2017-10-13T09:00:35.645Z,13.67
2017-10-13T09:03:02.696Z,13.87
2017-10-13T09:05:29.756Z,16.73
2017-10-13T09:07:56.316Z,15.00
2017-10-13T09:10:22.620Z,13.57
2017-10-13T09:12:49.652Z,20.73
2017-10-13T09:15:16.700Z,13.83
2017-10-13T09:17:43.759Z,15.67
2017-10-13T09:20:10.783Z,12.77
2017-10-13T09:22:43.128Z,15.93
2017-10-13T09:25:09.432Z,10.43
2017-10-13T09:27:35.722Z,13.60
2017-10-13T09:30:02.745Z,15.27
2017-10-13T09:32:29.858Z,13.50
2017-10-13T09:34:56.194Z,14.47
2017-10-13T09:37:22.500Z,13.43
2017-10-13T09:39:49.061Z,14.00
2017-10-13T09:42:15.350Z,12.17
2017-10-13T09:44:42.412Z,11.50
2017-10-13T09:47:08.733Z,10.87
2017-10-13T09:49:35.788Z,12.67
2017-10-13T09:52:02.112Z,17.77
2017-10-13T09:54:28.413Z,10.60
2017-10-13T09:56:56.200Z,12.77
2017-10-13T09:59:23.233Z,11.70
2017-10-13T10:01:50.280Z,17.53
2017-10-13T10:04:17.317Z,15.23
2017-10-13T10:06:45.137Z,10.30
2017-10-13T10:09:11.446Z,15.30
2017-10-13T10:11:38.488Z,14.00
2017-10-13T10:14:05.554Z,13.73
2017-10-13T10:16:31.840Z,14.00
2017-10-13T10:18:58.221Z,12.67
2017-10-13T10:21:24.567Z,8.50
2017-10-13T10:23:50.878Z,11.83
2017-10-13T10:26:17.296Z,12.00
2017-10-13T10:28:43.577Z,9.10
2017-10-13T10:31:09.897Z,7.57
2017-10-13T10:33:36.181Z,12.00
2017-10-13T10:36:03.252Z,20.33
2017-10-13T10:38:29.538Z,16.57
2017-10-13T10:40:56.592Z,9.90
2017-10-13T10:43:23.619Z,10.33
2017-10-13T10:45:49.888Z,9.80
2017-10-13T10:48:16.218Z,8.60
2017-10-13T10:50:42.579Z,16.90
2017-10-13T10:53:08.952Z,10.17
2017-10-13T10:55:35.243Z,12.73
2017-10-13T10:58:01.560Z,10.47
2017-10-13T11:00:27.840Z,11.93
2017-10-13T11:02:54.147Z,11.80
2017-10-13T11:05:20.460Z,12.20
2017-10-13T11:07:46.772Z,11.53
2017-10-13T11:10:13.121Z,12.27
2017-10-13T11:12:39.404Z,12.47
2017-10-13T11:15:06.546Z,9.13
2017-10-13T11:17:33.611Z,12.67
2017-10-13T11:20:00.640Z,10.77
2017-10-13T11:22:27.683Z,13.10
2017-10-13T11:24:54.741Z,11.03
2017-10-13T11:27:21.751Z,12.13
2017-10-13T11:29:48.052Z,10.87
2017-10-13T11:32:14.366Z,10.70
2017-10-13T11:34:40.685Z,9.37
2017-10-13T11:37:07.743Z,11.60
2017-10-13T11:39:34.053Z,11.00
2017-10-13T11:42:01.222Z,13.03
2017-10-13T11:44:27.525Z,9.33
2017-10-13T11:46:53.863Z,13.13
2017-10-13T11:49:20.912Z,10.20
2017-10-13T11:51:47.992Z,10.40
2017-10-13T11:54:14.295Z,16.47
2017-10-13T11:56:41.327Z,19.20
2017-10-13T11:59:07.623Z,13.97
2017-10-13T12:01:33.920Z,14.73
2017-10-13T12:04:00.230Z,13.47
2017-10-13T12:06:27.278Z,21.03
2017-10-13T12:08:54.320Z,12.90
2017-10-13T12:11:21.368Z,12.60
2017-10-13T12:13:48.458Z,15.77
2017-10-13T12:16:14.777Z,20.13
2017-10-13T12:18:41.236Z,11.80
2017-10-13T12:21:07.606Z,13.47
2017-10-13T12:23:34.676Z,15.03
2017-10-13T12:26:01.014Z,11.03
2017-10-13T12:28:27.353Z,9.67
2017-10-13T12:30:53.659Z,11.63
2017-10-13T12:33:20.714Z,14.87
2017-10-13T12:35:47.189Z,13.43
2017-10-13T12:38:13.475Z,12.50
2017-10-13T12:40:39.806Z,15.53
2017-10-13T12:43:06.088Z,14.63
2017-10-13T12:45:32.404Z,12.13
2017-10-13T12:47:58.730Z,13.87
2017-10-13T12:50:25.031Z,21.57
2017-10-13T12:52:51.400Z,11.67
2017-10-13T12:55:17.710Z,10.47
2017-10-13T12:57:44.020Z,14.17
2017-10-13T13:00:10.303Z,11.33
2017-10-13T13:02:36.644Z,9.87
2017-10-13T13:05:03.130Z,7.87
2017-10-13T13:07:29.442Z,13.97
2017-10-13T13:09:55.724Z,16.07
2017-10-13T13:12:22.592Z,7.50
2017-10-13T13:14:48.924Z,8.23
2017-10-13T13:17:15.947Z,9.10
2017-10-13T13:19:42.295Z,8.40
2017-10-13T13:22:09.361Z,8.40
2017-10-13T13:24:35.675Z,7.20
2017-10-13T13:27:02.740Z,10.00
2017-10-13T13:29:29.780Z,8.07
2017-10-13T13:31:56.889Z,8.70
2017-10-13T13:34:23.348Z,15.80
2017-10-13T13:36:50.404Z,9.67
2017-10-13T13:39:17.446Z,8.17
2017-10-13T13:41:44.530Z,10.17
2017-10-13T13:44:10.814Z,9.27
2017-10-13T13:46:37.115Z,9.97
2017-10-13T13:49:03.413Z,11.20
2017-10-13T13:51:29.739Z,9.53
2017-10-13T13:53:56.053Z,9.47
2017-10-13T13:56:23.117Z,12.07
2017-10-13T13:58:49.394Z,7.93
2017-10-13T14:01:15.722Z,10.70
2017-10-13T14:03:42.001Z,13.73
2017-10-13T14:06:08.421Z,10.23
2017-10-13T14:08:34.743Z,10.23
2017-10-13T14:11:01.780Z,7.77
2017-10-13T14:13:29.033Z,5.90
2017-10-13T14:15:55.361Z,8.40
2017-10-13T14:18:21.683Z,5.70
2017-10-13T14:20:48.152Z,7.67
2017-10-13T14:23:15.209Z,11.10
2017-10-13T14:25:41.519Z,9.80
2017-10-13T14:28:08.558Z,7.83
2017-10-13T14:30:35.576Z,8.50
2017-10-13T14:33:01.906Z,8.27
2017-10-13T14:35:29.006Z,9.33
2017-10-13T14:37:55.280Z,8.00
2017-10-13T14:40:21.636Z,9.80
2017-10-13T14:42:47.939Z,8.00
2017-10-13T14:45:14.284Z,12.63
2017-10-13T14:47:40.620Z,8.97
2017-10-13T14:50:06.928Z,5.77
2017-10-13T14:52:33.261Z,7.17
2017-10-13T14:54:59.589Z,8.60
2017-10-13T14:57:25.911Z,6.00
2017-10-13T14:59:52.252Z,8.00
2017-10-13T15:02:18.539Z,7.13
2017-10-13T15:04:44.824Z,7.30
2017-10-13T15:07:11.317Z,7.60
2017-10-13T15:09:37.735Z,5.93
2017-10-13T15:12:04.205Z,6.20
2017-10-13T15:14:30.472Z,6.07
2017-10-13T15:16:57.568Z,13.57
2017-10-13T15:19:23.899Z,10.63
2017-10-13T15:21:50.209Z,11.67
2017-10-13T15:24:16.516Z,15.80
2017-10-13T15:26:43.564Z,8.83
2017-10-13T15:29:24.703Z,7.30
2017-10-13T15:31:57.176Z,10.93
2017-10-13T15:34:29.542Z,8.67
2017-10-13T15:36:55.853Z,6.30
2017-10-13T15:39:28.130Z,6.00
2017-10-13T15:45:09.514Z,6.30
2017-10-13T15:47:41.849Z,9.00
2017-10-13T15:50:14.236Z,7.77
2017-10-13T15:52:41.292Z,6.63
2017-10-13T15:55:08.379Z,9.87
2017-10-13T15:57:34.757Z,10.20
2017-10-13T16:00:01.809Z,11.67
2017-10-13T16:02:28.900Z,6.20
2017-10-13T16:04:55.256Z,15.27
2017-10-13T16:07:21.596Z,9.33
2017-10-13T16:09:47.894Z,12.43
2017-10-13T16:12:14.226Z,10.50
2017-10-13T16:14:40.523Z,13.83
2017-10-13T16:17:06.821Z,12.10
2017-10-13T16:19:34.600Z,9.20
2017-10-13T16:22:01.709Z,13.77
2017-10-13T16:24:28.070Z,8.87
2017-10-13T16:26:54.381Z,15.43
2017-10-13T16:29:20.685Z,8.87
2017-10-13T16:31:47.026Z,12.43
2017-10-13T16:34:13.358Z,15.30
2017-10-13T16:36:39.736Z,13.40
2017-10-13T16:39:06.085Z,10.27
2017-10-13T16:41:32.531Z,10.00
2017-10-13T16:43:58.845Z,19.30
2017-10-13T16:46:25.200Z,16.20
2017-10-13T16:48:51.540Z,11.20
2017-10-13T16:51:17.961Z,21.17
2017-10-13T16:53:44.261Z,10.33
2017-10-13T16:56:11.296Z,10.90
2017-10-13T16:58:37.663Z,13.43
2017-10-13T17:01:04.030Z,12.07
2017-10-13T17:03:31.821Z,14.87
2017-10-13T17:05:58.892Z,11.33
2017-10-13T17:08:25.409Z,13.50
2017-10-13T17:10:52.500Z,13.50
2017-10-13T17:13:18.812Z,17.30
2017-10-13T17:15:45.236Z,14.03
2017-10-13T17:18:11.628Z,11.30
2017-10-13T17:20:37.973Z,14.83
2017-10-13T17:23:05.042Z,11.20
2017-10-13T17:25:31.380Z,15.50
2017-10-13T17:27:57.778Z,10.50
2017-10-13T17:30:24.120Z,12.20
2017-10-13T17:32:51.210Z,14.20
2017-10-13T17:35:17.559Z,14.33
2017-10-13T17:37:43.909Z,14.33
2017-10-13T17:40:10.281Z,13.93
2017-10-13T17:42:36.665Z,13.67
2017-10-13T17:45:03.175Z,13.57
2017-10-13T17:47:29.500Z,10.90
2017-10-13T17:49:55.849Z,9.40
2017-10-13T17:52:22.171Z,16.80
2017-10-13T17:54:48.486Z,16.43
2017-10-13T17:57:14.812Z,17.80
2017-10-13T17:59:41.193Z,13.53
2017-10-13T18:02:07.536Z,16.90
2017-10-13T18:04:34.609Z,18.97
2017-10-13T18:07:01.116Z,12.47
2017-10-13T18:09:27.446Z,10.47
2017-10-13T18:11:54.503Z,14.10
2017-10-13T18:14:21.596Z,14.00
2017-10-13T18:16:47.908Z,14.00
2017-10-13T18:19:14.263Z,13.03
2017-10-13T18:21:40.617Z,12.43
2017-10-13T18:24:07.077Z,11.77
2017-10-13T18:26:34.131Z,12.53
2017-10-13T18:29:01.279Z,10.20
2017-10-13T18:31:28.363Z,19.17
2017-10-13T18:33:54.815Z,15.00
2017-10-13T18:36:21.194Z,13.53
2017-10-13T18:38:48.320Z,14.17
2017-10-13T18:41:14.663Z,11.53
2017-10-13T18:43:41.737Z,11.30
2017-10-13T18:46:08.055Z,12.83
2017-10-13T18:48:35.133Z,14.83
2017-10-13T18:51:01.462Z,11.27
2017-10-13T18:53:27.793Z,14.30
2017-10-13T18:55:54.136Z,11.50
2017-10-13T18:58:20.495Z,15.03
2017-10-13T19:00:47.576Z,13.03
2017-10-13T19:03:13.901Z,21.20
2017-10-13T19:05:40.228Z,15.07
2017-10-13T19:08:07.439Z,13.83
2017-10-13T19:10:33.817Z,9.90
2017-10-13T19:13:00.136Z,11.93
2017-10-13T19:15:27.209Z,16.93
2017-10-13T19:17:53.565Z,14.50
2017-10-13T19:20:19.940Z,16.10
2017-10-13T19:22:47.113Z,11.70
2017-10-13T19:25:13.469Z,11.70
2017-10-13T19:27:39.833Z,17.63
2017-10-13T19:30:06.497Z,17.60
2017-10-13T19:32:33.610Z,15.93
2017-10-13T19:35:00.075Z,22.00
2017-10-13T19:37:27.200Z,16.10
2017-10-13T19:39:53.502Z,20.27
2017-10-13T19:42:19.861Z,16.30
2017-10-13T19:44:46.218Z,16.00
2017-10-13T19:47:13.320Z,14.43
2017-10-13T19:49:39.660Z,16.03
2017-10-13T19:52:06.032Z,15.30
2017-10-13T19:54:33.144Z,17.13
2017-10-13T19:56:59.481Z,18.83
2017-10-13T19:59:25.829Z,18.70
2017-10-13T20:01:52.916Z,17.70
2017-10-13T20:04:19.257Z,13.23
2017-10-13T20:06:45.618Z,17.10
2017-10-13T20:09:11.913Z,18.97
2017-10-13T20:11:38.270Z,13.53
2017-10-13T20:14:04.834Z,12.73
2017-10-13T20:16:31.448Z,23.97
2017-10-13T20:18:57.828Z,20.73
2017-10-13T20:21:24.190Z,16.73
2017-10-13T20:23:51.148Z,15.07
2017-10-13T20:26:17.738Z,19.60
2017-10-13T20:28:44.184Z,20.53
2017-10-13T20:31:10.550Z,19.03
2017-10-13T20:33:38.429Z,16.90
2017-10-13T20:36:04.823Z,18.90
2017-10-13T20:38:31.156Z,22.70
2017-10-13T20:40:57.516Z,27.10
2017-10-13T20:43:23.850Z,13.47
2017-10-13T20:45:50.177Z,14.97
2017-10-13T20:48:16.718Z,16.30
2017-10-13T20:50:44.867Z,15.73
2017-10-13T20:53:11.188Z,16.50
2017-10-13T20:55:37.545Z,19.53
2017-10-13T20:58:03.873Z,20.10
2017-10-13T21:00:30.224Z,20.10
2017-10-13T21:02:56.587Z,21.30
2017-10-13T21:05:22.949Z,17.63
2017-10-13T21:07:49.246Z,17.13
2017-10-13T21:10:16.330Z,19.00
2017-10-13T21:12:42.764Z,12.23
2017-10-13T21:15:09.133Z,18.83
2017-10-13T21:17:36.204Z,12.50
2017-10-13T21:20:03.326Z,24.17
2017-10-13T21:22:30.376Z,19.60
2017-10-13T21:24:57.465Z,28.67
2017-10-13T21:27:23.804Z,15.70
2017-10-13T21:29:50.119Z,12.03
2017-10-13T21:32:16.458Z,20.60
2017-10-13T21:34:43.028Z,20.63
2017-10-13T21:37:09.369Z,16.20
2017-10-13T21:39:35.758Z,16.00
2017-10-13T21:42:02.069Z,18.63
2017-10-13T21:44:29.209Z,22.43
2017-10-13T21:46:56.239Z,15.00
2017-10-13T21:49:24.096Z,20.90
2017-10-13T21:51:50.401Z,18.00
2017-10-13T21:54:16.721Z,16.57
2017-10-13T21:56:43.045Z,22.50
2017-10-13T21:59:09.446Z,17.43
2017-10-13T22:01:35.756Z,18.03
2017-10-13T22:04:02.062Z,11.93
2017-10-13T22:06:28.378Z,15.60
2017-10-13T22:08:54.769Z,15.93
2017-10-13T22:11:21.110Z,15.70
2017-10-13T22:13:47.421Z,21.93
2017-10-13T22:16:14.513Z,18.43
2017-10-13T22:18:40.839Z,21.10
2017-10-13T22:21:07.156Z,16.13
2017-10-13T22:23:33.509Z,12.70
2017-10-13T22:25:59.837Z,15.57
2017-10-13T22:28:26.165Z,13.97
2017-10-13T22:30:52.476Z,27.50
2017-10-13T22:33:18.792Z,13.20
2017-10-13T22:35:45.859Z,12.93
2017-10-13T22:38:12.622Z,13.87
2017-10-13T22:40:39.423Z,17.73
2017-10-13T22:43:05.756Z,16.30
2017-10-13T22:45:33.053Z,13.07
2017-10-13T22:47:59.406Z,17.17
2017-10-13T22:50:25.821Z,15.87
2017-10-13T22:52:52.159Z,14.90
2017-10-13T22:55:19.377Z,16.37
2017-10-13T22:57:45.697Z,10.50
2017-10-13T23:00:12.026Z,10.57
2017-10-13T23:02:38.390Z,12.70
2017-10-13T23:05:04.815Z,12.27
2017-10-13T23:07:31.327Z,11.93
2017-10-13T23:09:57.987Z,11.70
2017-10-13T23:12:24.311Z,20.40
2017-10-13T23:14:50.688Z,11.93
2017-10-13T23:17:18.566Z,19.53
2017-10-13T23:19:45.659Z,15.80
2017-10-13T23:22:12.016Z,13.27
2017-10-13T23:24:38.305Z,9.20
2017-10-13T23:27:04.688Z,10.57
2017-10-13T23:29:31.732Z,16.37
2017-10-13T23:31:58.109Z,10.37
2017-10-13T23:34:24.407Z,12.90
2017-10-13T23:36:58.505Z,13.07
2017-10-13T23:39:25.643Z,12.53
2017-10-13T23:41:52.048Z,16.30
2017-10-13T23:44:18.457Z,11.17
2017-10-13T23:46:44.856Z,19.93
2017-10-13T23:49:11.917Z,14.60
2017-10-13T23:51:39.114Z,12.07
2017-10-13T23:54:05.490Z,20.93
2017-10-13T23:56:31.821Z,16.43
2017-10-13T23:58:58.224Z,17.10
